sensor_id;sensor_type;location;lat;lon;timestamp;P1;durP1;ratioP1;P2;durP2;ratioP2
67902;SDS011;54708;43.612;1.568;2022-10-31T00:00:50;16.75;;;6.45;;
67902;SDS011;54708;43.612;1.568;2022-10-31T00:03:16;26.67;;;7.68;;
67902;SDS011;54708;43.612;1.568;2022-10-31T00:05:50;22.30;;;7.05;;
67902;SDS011;54708;43.612;1.568;2022-10-31T00:08:16;12.23;;;5.47;;
67902;SDS011;54708;43.612;1.568;2022-10-31T00:10:42;18.02;;;6.80;;
67902;SDS011;54708;43.612;1.568;2022-10-31T00:13:09;28.23;;;6.82;;
67902;SDS011;54708;43.612;1.568;2022-10-31T00:15:35;11.55;;;5.55;;
67902;SDS011;54708;43.612;1.568;2022-10-31T00:18:02;15.55;;;6.22;;
67902;SDS011;54708;43.612;1.568;2022-10-31T00:20:28;16.65;;;6.28;;
67902;SDS011;54708;43.612;1.568;2022-10-31T00:22:54;16.42;;;7.45;;
67902;SDS011;54708;43.612;1.568;2022-10-31T00:25:22;10.35;;;5.68;;
67902;SDS011;54708;43.612;1.568;2022-10-31T00:27:48;17.25;;;6.63;;
67902;SDS011;54708;43.612;1.568;2022-10-31T00:30:13;16.88;;;6.10;;
67902;SDS011;54708;43.612;1.568;2022-10-31T00:32:38;16.15;;;7.30;;
67902;SDS011;54708;43.612;1.568;2022-10-31T00:35:04;13.38;;;6.05;;
67902;SDS011;54708;43.612;1.568;2022-10-31T00:37:30;13.85;;;5.95;;
67902;SDS011;54708;43.612;1.568;2022-10-31T00:39:55;21.33;;;6.88;;
67902;SDS011;54708;43.612;1.568;2022-10-31T00:42:20;22.73;;;9.85;;
67902;SDS011;54708;43.612;1.568;2022-10-31T00:44:46;16.35;;;6.25;;
67902;SDS011;54708;43.612;1.568;2022-10-31T00:47:11;11.57;;;6.28;;
67902;SDS011;54708;43.612;1.568;2022-10-31T00:49:36;17.70;;;7.38;;
67902;SDS011;54708;43.612;1.568;2022-10-31T00:52:02;17.02;;;7.97;;
67902;SDS011;54708;43.612;1.568;2022-10-31T00:54:27;27.85;;;8.40;;
67902;SDS011;54708;43.612;1.568;2022-10-31T00:56:53;25.30;;;7.50;;
67902;SDS011;54708;43.612;1.568;2022-10-31T00:59:18;29.38;;;10.70;;
67902;SDS011;54708;43.612;1.568;2022-10-31T01:01:43;22.38;;;8.80;;
67902;SDS011;54708;43.612;1.568;2022-10-31T01:04:09;17.60;;;7.85;;
67902;SDS011;54708;43.612;1.568;2022-10-31T01:06:34;18.23;;;8.23;;
67902;SDS011;54708;43.612;1.568;2022-10-31T01:08:59;17.02;;;9.13;;
67902;SDS011;54708;43.612;1.568;2022-10-31T01:11:25;20.98;;;8.27;;
67902;SDS011;54708;43.612;1.568;2022-10-31T01:13:51;17.63;;;8.20;;
67902;SDS011;54708;43.612;1.568;2022-10-31T01:16:18;22.50;;;6.72;;
67902;SDS011;54708;43.612;1.568;2022-10-31T01:18:45;24.42;;;9.27;;
67902;SDS011;54708;43.612;1.568;2022-10-31T01:21:11;20.10;;;7.95;;
67902;SDS011;54708;43.612;1.568;2022-10-31T01:23:42;16.27;;;8.30;;
67902;SDS011;54708;43.612;1.568;2022-10-31T01:26:18;26.38;;;9.27;;
67902;SDS011;54708;43.612;1.568;2022-10-31T01:28:51;20.88;;;7.35;;
67902;SDS011;54708;43.612;1.568;2022-10-31T01:31:19;17.73;;;6.97;;
67902;SDS011;54708;43.612;1.568;2022-10-31T01:33:46;14.88;;;6.60;;
67902;SDS011;54708;43.612;1.568;2022-10-31T01:36:19;18.08;;;7.40;;
67902;SDS011;54708;43.612;1.568;2022-10-31T01:38:46;17.33;;;7.85;;
67902;SDS011;54708;43.612;1.568;2022-10-31T01:41:13;18.88;;;7.45;;
67902;SDS011;54708;43.612;1.568;2022-10-31T01:43:44;16.17;;;8.02;;
67902;SDS011;54708;43.612;1.568;2022-10-31T01:46:10;19.15;;;8.07;;
67902;SDS011;54708;43.612;1.568;2022-10-31T01:48:35;16.05;;;8.38;;
67902;SDS011;54708;43.612;1.568;2022-10-31T01:51:01;27.30;;;10.20;;
67902;SDS011;54708;43.612;1.568;2022-10-31T01:53:29;20.23;;;8.48;;
67902;SDS011;54708;43.612;1.568;2022-10-31T01:55:56;18.30;;;7.97;;
67902;SDS011;54708;43.612;1.568;2022-10-31T01:58:23;22.05;;;10.10;;
67902;SDS011;54708;43.612;1.568;2022-10-31T02:00:51;25.73;;;10.77;;
67902;SDS011;54708;43.612;1.568;2022-10-31T02:03:20;25.00;;;10.02;;
67902;SDS011;54708;43.612;1.568;2022-10-31T02:05:45;21.05;;;8.77;;
67902;SDS011;54708;43.612;1.568;2022-10-31T02:08:27;23.02;;;9.27;;
67902;SDS011;54708;43.612;1.568;2022-10-31T02:10:54;22.80;;;9.15;;
67902;SDS011;54708;43.612;1.568;2022-10-31T02:13:21;21.88;;;8.20;;
67902;SDS011;54708;43.612;1.568;2022-10-31T02:15:49;23.40;;;9.43;;
67902;SDS011;54708;43.612;1.568;2022-10-31T02:18:17;23.15;;;8.48;;
67902;SDS011;54708;43.612;1.568;2022-10-31T02:34:19;15.05;;;8.73;;
67902;SDS011;54708;43.612;1.568;2022-10-31T02:36:51;28.58;;;9.48;;
67902;SDS011;54708;43.612;1.568;2022-10-31T02:39:55;21.38;;;8.85;;
67902;SDS011;54708;43.612;1.568;2022-10-31T02:47:22;21.83;;;8.52;;
67902;SDS011;54708;43.612;1.568;2022-10-31T02:52:34;18.10;;;8.75;;
67902;SDS011;54708;43.612;1.568;2022-10-31T02:57:47;21.73;;;9.77;;
67902;SDS011;54708;43.612;1.568;2022-10-31T03:00:12;28.90;;;9.48;;
67902;SDS011;54708;43.612;1.568;2022-10-31T03:05:09;13.95;;;8.20;;
67902;SDS011;54708;43.612;1.568;2022-10-31T03:12:48;20.67;;;9.23;;
67902;SDS011;54708;43.612;1.568;2022-10-31T03:15:43;19.25;;;8.63;;
67902;SDS011;54708;43.612;1.568;2022-10-31T03:18:11;16.75;;;8.57;;
67902;SDS011;54708;43.612;1.568;2022-10-31T03:20:40;28.65;;;8.18;;
67902;SDS011;54708;43.612;1.568;2022-10-31T03:23:08;22.13;;;8.90;;
67902;SDS011;54708;43.612;1.568;2022-10-31T03:25:36;18.67;;;8.90;;
67902;SDS011;54708;43.612;1.568;2022-10-31T03:28:02;21.65;;;8.57;;
67902;SDS011;54708;43.612;1.568;2022-10-31T03:30:29;24.10;;;8.57;;
67902;SDS011;54708;43.612;1.568;2022-10-31T03:32:56;19.88;;;8.50;;
67902;SDS011;54708;43.612;1.568;2022-10-31T03:35:24;25.65;;;9.35;;
67902;SDS011;54708;43.612;1.568;2022-10-31T03:37:52;18.15;;;7.80;;
67902;SDS011;54708;43.612;1.568;2022-10-31T03:40:19;20.52;;;8.98;;
67902;SDS011;54708;43.612;1.568;2022-10-31T03:42:48;20.17;;;8.48;;
67902;SDS011;54708;43.612;1.568;2022-10-31T03:45:20;25.52;;;9.07;;
67902;SDS011;54708;43.612;1.568;2022-10-31T03:47:48;17.52;;;8.30;;
67902;SDS011;54708;43.612;1.568;2022-10-31T03:50:14;18.45;;;8.05;;
67902;SDS011;54708;43.612;1.568;2022-10-31T03:55:09;20.02;;;8.68;;
67902;SDS011;54708;43.612;1.568;2022-10-31T04:00:25;19.38;;;7.78;;
67902;SDS011;54708;43.612;1.568;2022-10-31T04:02:59;22.45;;;9.48;;
67902;SDS011;54708;43.612;1.568;2022-10-31T04:05:28;20.38;;;8.60;;
67902;SDS011;54708;43.612;1.568;2022-10-31T04:07:55;25.08;;;8.85;;
67902;SDS011;54708;43.612;1.568;2022-10-31T04:10:22;23.40;;;9.20;;
67902;SDS011;54708;43.612;1.568;2022-10-31T04:12:49;24.02;;;8.13;;
67902;SDS011;54708;43.612;1.568;2022-10-31T04:15:17;13.40;;;7.95;;
67902;SDS011;54708;43.612;1.568;2022-10-31T04:17:44;18.73;;;8.50;;
67902;SDS011;54708;43.612;1.568;2022-10-31T04:20:11;17.58;;;8.48;;
67902;SDS011;54708;43.612;1.568;2022-10-31T04:22:42;15.60;;;7.32;;
67902;SDS011;54708;43.612;1.568;2022-10-31T04:25:08;20.40;;;8.13;;
67902;SDS011;54708;43.612;1.568;2022-10-31T04:27:33;19.13;;;7.88;;
67902;SDS011;54708;43.612;1.568;2022-10-31T04:29:59;22.60;;;7.95;;
67902;SDS011;54708;43.612;1.568;2022-10-31T04:32:25;21.50;;;8.70;;
67902;SDS011;54708;43.612;1.568;2022-10-31T04:34:50;18.20;;;9.45;;
67902;SDS011;54708;43.612;1.568;2022-10-31T04:37:15;15.80;;;7.57;;
67902;SDS011;54708;43.612;1.568;2022-10-31T04:39:41;19.60;;;7.90;;
67902;SDS011;54708;43.612;1.568;2022-10-31T04:42:06;16.40;;;8.02;;
67902;SDS011;54708;43.612;1.568;2022-10-31T04:44:32;22.15;;;8.55;;
67902;SDS011;54708;43.612;1.568;2022-10-31T04:46:57;19.33;;;8.95;;
67902;SDS011;54708;43.612;1.568;2022-10-31T04:49:22;25.50;;;9.73;;
67902;SDS011;54708;43.612;1.568;2022-10-31T04:51:48;17.33;;;7.72;;
67902;SDS011;54708;43.612;1.568;2022-10-31T04:54:13;14.15;;;7.57;;
67902;SDS011;54708;43.612;1.568;2022-10-31T04:56:38;16.90;;;8.40;;
67902;SDS011;54708;43.612;1.568;2022-10-31T04:59:04;25.65;;;9.30;;
67902;SDS011;54708;43.612;1.568;2022-10-31T05:01:29;16.30;;;8.27;;
67902;SDS011;54708;43.612;1.568;2022-10-31T05:03:54;16.58;;;7.55;;
67902;SDS011;54708;43.612;1.568;2022-10-31T05:06:20;17.10;;;8.25;;
67902;SDS011;54708;43.612;1.568;2022-10-31T05:08:45;13.52;;;6.53;;
67902;SDS011;54708;43.612;1.568;2022-10-31T05:11:11;15.88;;;8.20;;
67902;SDS011;54708;43.612;1.568;2022-10-31T05:13:36;12.82;;;8.63;;
67902;SDS011;54708;43.612;1.568;2022-10-31T05:16:01;17.38;;;7.68;;
67902;SDS011;54708;43.612;1.568;2022-10-31T05:18:28;14.15;;;7.22;;
67902;SDS011;54708;43.612;1.568;2022-10-31T05:20:53;15.63;;;8.32;;
67902;SDS011;54708;43.612;1.568;2022-10-31T05:23:18;17.70;;;6.88;;
67902;SDS011;54708;43.612;1.568;2022-10-31T05:25:44;16.80;;;7.65;;
67902;SDS011;54708;43.612;1.568;2022-10-31T05:28:09;16.48;;;7.43;;
67902;SDS011;54708;43.612;1.568;2022-10-31T05:30:35;16.13;;;6.90;;
67902;SDS011;54708;43.612;1.568;2022-10-31T05:33:00;13.32;;;7.28;;
67902;SDS011;54708;43.612;1.568;2022-10-31T05:35:27;19.67;;;7.47;;
67902;SDS011;54708;43.612;1.568;2022-10-31T05:37:54;17.42;;;6.68;;
67902;SDS011;54708;43.612;1.568;2022-10-31T05:40:20;15.82;;;7.28;;
67902;SDS011;54708;43.612;1.568;2022-10-31T05:42:46;14.20;;;7.03;;
67902;SDS011;54708;43.612;1.568;2022-10-31T05:45:13;13.05;;;6.45;;
67902;SDS011;54708;43.612;1.568;2022-10-31T05:47:39;15.90;;;7.03;;
67902;SDS011;54708;43.612;1.568;2022-10-31T05:50:05;12.02;;;7.47;;
67902;SDS011;54708;43.612;1.568;2022-10-31T05:52:31;12.95;;;7.03;;
67902;SDS011;54708;43.612;1.568;2022-10-31T05:54:57;18.58;;;6.97;;
67902;SDS011;54708;43.612;1.568;2022-10-31T05:57:22;14.27;;;6.88;;
67902;SDS011;54708;43.612;1.568;2022-10-31T05:59:48;16.17;;;7.57;;
67902;SDS011;54708;43.612;1.568;2022-10-31T06:02:13;16.52;;;7.10;;
67902;SDS011;54708;43.612;1.568;2022-10-31T06:04:39;15.00;;;7.57;;
67902;SDS011;54708;43.612;1.568;2022-10-31T06:07:04;19.80;;;6.90;;
67902;SDS011;54708;43.612;1.568;2022-10-31T06:09:29;23.85;;;7.80;;
67902;SDS011;54708;43.612;1.568;2022-10-31T06:11:55;22.38;;;8.90;;
67902;SDS011;54708;43.612;1.568;2022-10-31T06:14:20;17.17;;;6.82;;
67902;SDS011;54708;43.612;1.568;2022-10-31T06:16:45;16.17;;;7.03;;
67902;SDS011;54708;43.612;1.568;2022-10-31T06:19:11;16.02;;;7.60;;
67902;SDS011;54708;43.612;1.568;2022-10-31T06:21:36;25.15;;;9.27;;
67902;SDS011;54708;43.612;1.568;2022-10-31T06:24:02;17.35;;;8.40;;
67902;SDS011;54708;43.612;1.568;2022-10-31T06:26:27;14.10;;;7.57;;
67902;SDS011;54708;43.612;1.568;2022-10-31T06:28:52;20.30;;;7.82;;
67902;SDS011;54708;43.612;1.568;2022-10-31T06:31:18;17.42;;;7.53;;
67902;SDS011;54708;43.612;1.568;2022-10-31T06:33:43;17.77;;;7.32;;
67902;SDS011;54708;43.612;1.568;2022-10-31T06:36:09;17.60;;;7.80;;
67902;SDS011;54708;43.612;1.568;2022-10-31T06:38:35;18.65;;;7.50;;
67902;SDS011;54708;43.612;1.568;2022-10-31T06:41:04;16.80;;;8.68;;
67902;SDS011;54708;43.612;1.568;2022-10-31T06:43:30;18.27;;;8.75;;
67902;SDS011;54708;43.612;1.568;2022-10-31T06:45:55;18.88;;;6.80;;
67902;SDS011;54708;43.612;1.568;2022-10-31T06:48:21;16.85;;;7.55;;
67902;SDS011;54708;43.612;1.568;2022-10-31T06:50:46;15.80;;;7.97;;
67902;SDS011;54708;43.612;1.568;2022-10-31T06:53:11;19.02;;;7.97;;
67902;SDS011;54708;43.612;1.568;2022-10-31T06:55:39;22.77;;;7.68;;
67902;SDS011;54708;43.612;1.568;2022-10-31T06:58:04;17.60;;;8.05;;
67902;SDS011;54708;43.612;1.568;2022-10-31T07:00:30;17.60;;;7.57;;
67902;SDS011;54708;43.612;1.568;2022-10-31T07:02:56;14.32;;;7.55;;
67902;SDS011;54708;43.612;1.568;2022-10-31T07:05:25;19.52;;;8.90;;
67902;SDS011;54708;43.612;1.568;2022-10-31T07:07:54;16.85;;;7.80;;
67902;SDS011;54708;43.612;1.568;2022-10-31T07:10:24;15.07;;;8.57;;
67902;SDS011;54708;43.612;1.568;2022-10-31T07:12:57;21.02;;;7.65;;
67902;SDS011;54708;43.612;1.568;2022-10-31T07:15:24;11.10;;;7.57;;
67902;SDS011;54708;43.612;1.568;2022-10-31T07:17:50;14.48;;;8.15;;
67902;SDS011;54708;43.612;1.568;2022-10-31T07:20:16;21.10;;;8.23;;
67902;SDS011;54708;43.612;1.568;2022-10-31T07:22:41;14.85;;;8.30;;
67902;SDS011;54708;43.612;1.568;2022-10-31T07:25:07;22.10;;;7.57;;
67902;SDS011;54708;43.612;1.568;2022-10-31T07:27:39;13.77;;;7.07;;
67902;SDS011;54708;43.612;1.568;2022-10-31T07:32:50;17.40;;;7.50;;
67902;SDS011;54708;43.612;1.568;2022-10-31T07:35:16;23.08;;;8.70;;
67902;SDS011;54708;43.612;1.568;2022-10-31T07:37:43;16.30;;;8.15;;
67902;SDS011;54708;43.612;1.568;2022-10-31T07:40:08;23.88;;;8.57;;
67902;SDS011;54708;43.612;1.568;2022-10-31T07:42:35;18.23;;;8.43;;
67902;SDS011;54708;43.612;1.568;2022-10-31T07:45:01;14.30;;;8.05;;
67902;SDS011;54708;43.612;1.568;2022-10-31T07:47:26;20.23;;;8.75;;
67902;SDS011;54708;43.612;1.568;2022-10-31T07:49:52;16.83;;;6.97;;
67902;SDS011;54708;43.612;1.568;2022-10-31T07:52:17;18.95;;;8.15;;
67902;SDS011;54708;43.612;1.568;2022-10-31T07:54:42;13.43;;;6.78;;
67902;SDS011;54708;43.612;1.568;2022-10-31T07:57:08;17.90;;;7.85;;
67902;SDS011;54708;43.612;1.568;2022-10-31T07:59:33;15.27;;;7.10;;
67902;SDS011;54708;43.612;1.568;2022-10-31T08:01:58;16.15;;;7.63;;
67902;SDS011;54708;43.612;1.568;2022-10-31T08:04:24;20.52;;;8.57;;
67902;SDS011;54708;43.612;1.568;2022-10-31T08:06:49;20.90;;;8.85;;
67902;SDS011;54708;43.612;1.568;2022-10-31T08:09:14;24.23;;;8.07;;
67902;SDS011;54708;43.612;1.568;2022-10-31T08:11:40;15.27;;;7.80;;
67902;SDS011;54708;43.612;1.568;2022-10-31T08:14:05;13.18;;;6.72;;
67902;SDS011;54708;43.612;1.568;2022-10-31T08:16:31;17.67;;;7.50;;
67902;SDS011;54708;43.612;1.568;2022-10-31T08:18:56;16.17;;;7.40;;
67902;SDS011;54708;43.612;1.568;2022-10-31T08:21:22;16.50;;;7.60;;
67902;SDS011;54708;43.612;1.568;2022-10-31T08:23:47;13.75;;;7.47;;
67902;SDS011;54708;43.612;1.568;2022-10-31T08:26:13;19.85;;;7.65;;
67902;SDS011;54708;43.612;1.568;2022-10-31T08:28:38;17.88;;;8.18;;
67902;SDS011;54708;43.612;1.568;2022-10-31T08:31:03;18.75;;;7.32;;
67902;SDS011;54708;43.612;1.568;2022-10-31T08:33:29;20.02;;;8.27;;
67902;SDS011;54708;43.612;1.568;2022-10-31T08:35:57;19.98;;;7.25;;
67902;SDS011;54708;43.612;1.568;2022-10-31T08:38:22;17.00;;;7.32;;
67902;SDS011;54708;43.612;1.568;2022-10-31T08:40:48;26.92;;;8.00;;
67902;SDS011;54708;43.612;1.568;2022-10-31T08:43:15;14.95;;;7.53;;
67902;SDS011;54708;43.612;1.568;2022-10-31T08:45:42;12.48;;;6.03;;
67902;SDS011;54708;43.612;1.568;2022-10-31T08:48:12;21.15;;;7.88;;
67902;SDS011;54708;43.612;1.568;2022-10-31T08:50:39;16.58;;;7.40;;
67902;SDS011;54708;43.612;1.568;2022-10-31T08:53:06;16.20;;;7.13;;
67902;SDS011;54708;43.612;1.568;2022-10-31T08:55:37;13.07;;;6.50;;
67902;SDS011;54708;43.612;1.568;2022-10-31T08:58:04;12.50;;;6.28;;
67902;SDS011;54708;43.612;1.568;2022-10-31T09:00:49;14.63;;;7.65;;
67902;SDS011;54708;43.612;1.568;2022-10-31T09:03:18;25.42;;;7.68;;
67902;SDS011;54708;43.612;1.568;2022-10-31T09:05:48;17.27;;;6.57;;
67902;SDS011;54708;43.612;1.568;2022-10-31T09:08:14;14.85;;;6.47;;
67902;SDS011;54708;43.612;1.568;2022-10-31T09:10:40;17.33;;;6.00;;
67902;SDS011;54708;43.612;1.568;2022-10-31T09:13:06;12.82;;;6.93;;
67902;SDS011;54708;43.612;1.568;2022-10-31T09:15:37;17.05;;;6.47;;
67902;SDS011;54708;43.612;1.568;2022-10-31T09:18:04;17.15;;;5.68;;
67902;SDS011;54708;43.612;1.568;2022-10-31T09:20:30;21.40;;;6.10;;
67902;SDS011;54708;43.612;1.568;2022-10-31T09:22:57;21.23;;;5.55;;
67902;SDS011;54708;43.612;1.568;2022-10-31T09:25:23;14.98;;;4.97;;
67902;SDS011;54708;43.612;1.568;2022-10-31T09:27:48;12.90;;;6.03;;
67902;SDS011;54708;43.612;1.568;2022-10-31T09:30:13;11.00;;;5.13;;
67902;SDS011;54708;43.612;1.568;2022-10-31T09:32:39;13.23;;;5.22;;
67902;SDS011;54708;43.612;1.568;2022-10-31T09:35:04;22.38;;;6.55;;
67902;SDS011;54708;43.612;1.568;2022-10-31T09:37:30;19.02;;;6.53;;
67902;SDS011;54708;43.612;1.568;2022-10-31T09:39:55;11.95;;;5.85;;
67902;SDS011;54708;43.612;1.568;2022-10-31T09:45:07;15.35;;;5.63;;
67902;SDS011;54708;43.612;1.568;2022-10-31T09:53:18;15.98;;;6.03;;
67902;SDS011;54708;43.612;1.568;2022-10-31T09:55:45;18.27;;;6.10;;
67902;SDS011;54708;43.612;1.568;2022-10-31T09:58:18;11.82;;;5.55;;
67902;SDS011;54708;43.612;1.568;2022-10-31T10:00:45;20.15;;;5.65;;
67902;SDS011;54708;43.612;1.568;2022-10-31T10:06:18;13.75;;;5.50;;
67902;SDS011;54708;43.612;1.568;2022-10-31T10:08:46;16.45;;;6.30;;
67902;SDS011;54708;43.612;1.568;2022-10-31T10:24:55;7.78;;;5.05;;
67902;SDS011;54708;43.612;1.568;2022-10-31T10:30:15;13.63;;;5.57;;
67902;SDS011;54708;43.612;1.568;2022-10-31T10:32:56;15.35;;;5.15;;
67902;SDS011;54708;43.612;1.568;2022-10-31T10:35:24;13.43;;;4.15;;
67902;SDS011;54708;43.612;1.568;2022-10-31T10:37:59;23.73;;;6.28;;
67902;SDS011;54708;43.612;1.568;2022-10-31T10:40:27;14.80;;;6.03;;
67902;SDS011;54708;43.612;1.568;2022-10-31T10:45:44;20.75;;;6.18;;
67902;SDS011;54708;43.612;1.568;2022-10-31T10:51:17;12.80;;;4.55;;
67902;SDS011;54708;43.612;1.568;2022-10-31T10:53:59;12.65;;;4.60;;
67902;SDS011;54708;43.612;1.568;2022-10-31T10:59:30;20.70;;;6.15;;
67902;SDS011;54708;43.612;1.568;2022-10-31T11:01:55;13.07;;;5.05;;
67902;SDS011;54708;43.612;1.568;2022-10-31T11:04:38;18.98;;;5.95;;
67902;SDS011;54708;43.612;1.568;2022-10-31T11:07:06;21.40;;;5.88;;
67902;SDS011;54708;43.612;1.568;2022-10-31T11:09:33;13.40;;;4.93;;
67902;SDS011;54708;43.612;1.568;2022-10-31T11:11:59;11.20;;;4.35;;
67902;SDS011;54708;43.612;1.568;2022-10-31T11:14:25;14.90;;;4.68;;
67902;SDS011;54708;43.612;1.568;2022-10-31T11:16:54;12.05;;;5.00;;
67902;SDS011;54708;43.612;1.568;2022-10-31T11:19:32;23.40;;;4.82;;
67902;SDS011;54708;43.612;1.568;2022-10-31T11:22:08;14.32;;;4.72;;
67902;SDS011;54708;43.612;1.568;2022-10-31T11:24:40;13.75;;;5.07;;
67902;SDS011;54708;43.612;1.568;2022-10-31T11:27:16;12.20;;;6.03;;
67902;SDS011;54708;43.612;1.568;2022-10-31T11:29:45;12.48;;;5.35;;
67902;SDS011;54708;43.612;1.568;2022-10-31T11:32:21;15.13;;;5.00;;
67902;SDS011;54708;43.612;1.568;2022-10-31T11:34:54;17.05;;;5.22;;
67902;SDS011;54708;43.612;1.568;2022-10-31T11:37:23;18.48;;;5.57;;
67902;SDS011;54708;43.612;1.568;2022-10-31T11:39:57;10.82;;;5.05;;
67902;SDS011;54708;43.612;1.568;2022-10-31T11:42:34;14.20;;;5.22;;
67902;SDS011;54708;43.612;1.568;2022-10-31T11:45:06;20.73;;;5.28;;
67902;SDS011;54708;43.612;1.568;2022-10-31T11:47:40;18.58;;;5.40;;
67902;SDS011;54708;43.612;1.568;2022-10-31T11:50:11;18.85;;;5.57;;
67902;SDS011;54708;43.612;1.568;2022-10-31T11:52:40;16.58;;;4.85;;
67902;SDS011;54708;43.612;1.568;2022-10-31T11:57:43;15.80;;;5.10;;
67902;SDS011;54708;43.612;1.568;2022-10-31T12:02:46;19.90;;;5.10;;
67902;SDS011;54708;43.612;1.568;2022-10-31T12:05:17;12.80;;;5.43;;
67902;SDS011;54708;43.612;1.568;2022-10-31T12:07:45;14.82;;;4.68;;
67902;SDS011;54708;43.612;1.568;2022-10-31T12:10:10;13.80;;;4.35;;
67902;SDS011;54708;43.612;1.568;2022-10-31T12:15:55;15.40;;;5.05;;
67902;SDS011;54708;43.612;1.568;2022-10-31T12:24:29;15.85;;;4.70;;
67902;SDS011;54708;43.612;1.568;2022-10-31T12:27:05;16.63;;;5.18;;
67902;SDS011;54708;43.612;1.568;2022-10-31T12:33:16;11.43;;;5.85;;
67902;SDS011;54708;43.612;1.568;2022-10-31T12:41:15;23.45;;;5.20;;
67902;SDS011;54708;43.612;1.568;2022-10-31T12:43:58;21.73;;;6.00;;
67902;SDS011;54708;43.612;1.568;2022-10-31T12:57:09;11.27;;;5.03;;
67902;SDS011;54708;43.612;1.568;2022-10-31T12:59:48;15.80;;;5.88;;
67902;SDS011;54708;43.612;1.568;2022-10-31T13:10:32;17.92;;;5.88;;
67902;SDS011;54708;43.612;1.568;2022-10-31T13:13:04;15.65;;;5.93;;
67902;SDS011;54708;43.612;1.568;2022-10-31T13:15:38;12.35;;;5.00;;
67902;SDS011;54708;43.612;1.568;2022-10-31T13:18:14;17.77;;;5.43;;
67902;SDS011;54708;43.612;1.568;2022-10-31T13:20:47;14.02;;;4.97;;
67902;SDS011;54708;43.612;1.568;2022-10-31T13:23:19;10.73;;;4.63;;
67902;SDS011;54708;43.612;1.568;2022-10-31T13:25:46;13.38;;;4.50;;
67902;SDS011;54708;43.612;1.568;2022-10-31T13:28:26;14.30;;;4.80;;
67902;SDS011;54708;43.612;1.568;2022-10-31T13:31:01;14.15;;;5.00;;
67902;SDS011;54708;43.612;1.568;2022-10-31T13:33:29;11.15;;;5.22;;
67902;SDS011;54708;43.612;1.568;2022-10-31T13:38:51;12.32;;;4.28;;
67902;SDS011;54708;43.612;1.568;2022-10-31T13:41:22;12.93;;;4.70;;
67902;SDS011;54708;43.612;1.568;2022-10-31T13:48:58;17.90;;;6.15;;
67902;SDS011;54708;43.612;1.568;2022-10-31T13:51:24;14.30;;;4.88;;
67902;SDS011;54708;43.612;1.568;2022-10-31T13:56:56;10.63;;;5.35;;
67902;SDS011;54708;43.612;1.568;2022-10-31T13:59:21;20.73;;;6.20;;
67902;SDS011;54708;43.612;1.568;2022-10-31T14:01:51;12.13;;;5.43;;
67902;SDS011;54708;43.612;1.568;2022-10-31T14:04:23;16.08;;;5.90;;
67902;SDS011;54708;43.612;1.568;2022-10-31T14:06:52;16.48;;;5.57;;
67902;SDS011;54708;43.612;1.568;2022-10-31T14:09:33;16.52;;;5.55;;
67902;SDS011;54708;43.612;1.568;2022-10-31T14:12:02;9.27;;;5.22;;
67902;SDS011;54708;43.612;1.568;2022-10-31T14:14:32;18.67;;;5.97;;
67902;SDS011;54708;43.612;1.568;2022-10-31T14:17:01;10.80;;;4.63;;
67902;SDS011;54708;43.612;1.568;2022-10-31T14:19:26;14.18;;;4.90;;
67902;SDS011;54708;43.612;1.568;2022-10-31T14:21:52;10.07;;;5.10;;
67902;SDS011;54708;43.612;1.568;2022-10-31T14:31:55;11.27;;;5.63;;
67902;SDS011;54708;43.612;1.568;2022-10-31T14:34:27;16.20;;;5.88;;
67902;SDS011;54708;43.612;1.568;2022-10-31T14:45:49;12.98;;;6.45;;
67902;SDS011;54708;43.612;1.568;2022-10-31T14:51:11;22.67;;;6.60;;
67902;SDS011;54708;43.612;1.568;2022-10-31T14:53:44;13.32;;;5.30;;
67902;SDS011;54708;43.612;1.568;2022-10-31T14:56:12;15.68;;;6.35;;
67902;SDS011;54708;43.612;1.568;2022-10-31T14:58:43;13.63;;;5.60;;
67902;SDS011;54708;43.612;1.568;2022-10-31T15:01:51;12.63;;;5.70;;
67902;SDS011;54708;43.612;1.568;2022-10-31T15:06:35;17.73;;;6.32;;
67902;SDS011;54708;43.612;1.568;2022-10-31T15:09:05;14.27;;;5.65;;
67902;SDS011;54708;43.612;1.568;2022-10-31T15:11:35;13.23;;;5.20;;
67902;SDS011;54708;43.612;1.568;2022-10-31T15:14:14;15.70;;;5.63;;
67902;SDS011;54708;43.612;1.568;2022-10-31T15:16:46;14.10;;;5.50;;
67902;SDS011;54708;43.612;1.568;2022-10-31T15:19:12;13.57;;;5.40;;
67902;SDS011;54708;43.612;1.568;2022-10-31T15:21:42;13.32;;;5.35;;
67902;SDS011;54708;43.612;1.568;2022-10-31T15:24:10;18.65;;;5.32;;
67902;SDS011;54708;43.612;1.568;2022-10-31T15:26:39;10.10;;;5.43;;
67902;SDS011;54708;43.612;1.568;2022-10-31T15:29:12;8.35;;;4.53;;
67902;SDS011;54708;43.612;1.568;2022-10-31T15:31:37;18.85;;;7.00;;
67902;SDS011;54708;43.612;1.568;2022-10-31T15:34:05;13.25;;;5.63;;
67902;SDS011;54708;43.612;1.568;2022-10-31T15:36:36;17.25;;;5.30;;
67902;SDS011;54708;43.612;1.568;2022-10-31T15:39:02;16.83;;;6.35;;
67902;SDS011;54708;43.612;1.568;2022-10-31T15:41:35;15.55;;;5.85;;
67902;SDS011;54708;43.612;1.568;2022-10-31T15:44:20;14.90;;;5.97;;
67902;SDS011;54708;43.612;1.568;2022-10-31T15:47:32;19.73;;;6.30;;
67902;SDS011;54708;43.612;1.568;2022-10-31T15:49:48;23.95;;;7.05;;
67902;SDS011;54708;43.612;1.568;2022-10-31T15:52:34;17.02;;;5.30;;
67902;SDS011;54708;43.612;1.568;2022-10-31T15:55:24;14.52;;;5.75;;
67902;SDS011;54708;43.612;1.568;2022-10-31T15:57:54;17.35;;;5.97;;
67902;SDS011;54708;43.612;1.568;2022-10-31T16:00:40;19.52;;;5.85;;
67902;SDS011;54708;43.612;1.568;2022-10-31T16:05:38;15.93;;;6.03;;
67902;SDS011;54708;43.612;1.568;2022-10-31T16:08:22;19.00;;;6.32;;
67902;SDS011;54708;43.612;1.568;2022-10-31T16:10:49;18.83;;;5.80;;
67902;SDS011;54708;43.612;1.568;2022-10-31T16:13:14;14.02;;;4.93;;
67902;SDS011;54708;43.612;1.568;2022-10-31T16:15:46;15.32;;;6.03;;
67902;SDS011;54708;43.612;1.568;2022-10-31T16:18:17;13.13;;;5.25;;
67902;SDS011;54708;43.612;1.568;2022-10-31T16:20:48;19.80;;;6.32;;
67902;SDS011;54708;43.612;1.568;2022-10-31T16:23:16;13.65;;;6.10;;
67902;SDS011;54708;43.612;1.568;2022-10-31T16:25:42;16.10;;;5.43;;
67902;SDS011;54708;43.612;1.568;2022-10-31T16:28:27;18.73;;;6.55;;
67902;SDS011;54708;43.612;1.568;2022-10-31T16:30:53;32.22;;;7.85;;
67902;SDS011;54708;43.612;1.568;2022-10-31T16:36:00;14.75;;;5.65;;
67902;SDS011;54708;43.612;1.568;2022-10-31T16:38:27;33.85;;;7.53;;
67902;SDS011;54708;43.612;1.568;2022-10-31T16:40:52;17.58;;;6.32;;
67902;SDS011;54708;43.612;1.568;2022-10-31T16:43:19;16.98;;;6.85;;
67902;SDS011;54708;43.612;1.568;2022-10-31T16:45:47;19.77;;;6.60;;
67902;SDS011;54708;43.612;1.568;2022-10-31T16:48:21;17.90;;;6.57;;
67902;SDS011;54708;43.612;1.568;2022-10-31T16:50:48;23.35;;;8.02;;
67902;SDS011;54708;43.612;1.568;2022-10-31T16:53:14;14.10;;;8.23;;
67902;SDS011;54708;43.612;1.568;2022-10-31T16:55:41;27.23;;;7.50;;
67902;SDS011;54708;43.612;1.568;2022-10-31T16:58:12;16.45;;;6.28;;
67902;SDS011;54708;43.612;1.568;2022-10-31T17:00:40;17.38;;;7.13;;
67902;SDS011;54708;43.612;1.568;2022-10-31T17:03:07;17.45;;;6.88;;
67902;SDS011;54708;43.612;1.568;2022-10-31T17:05:33;18.48;;;6.85;;
67902;SDS011;54708;43.612;1.568;2022-10-31T17:07:58;22.88;;;6.57;;
67902;SDS011;54708;43.612;1.568;2022-10-31T17:10:24;15.15;;;6.88;;
67902;SDS011;54708;43.612;1.568;2022-10-31T17:12:50;13.52;;;6.38;;
67902;SDS011;54708;43.612;1.568;2022-10-31T17:15:18;14.18;;;6.65;;
67902;SDS011;54708;43.612;1.568;2022-10-31T17:17:45;13.18;;;6.40;;